Terminal Aerodrome Forecast
Issued by NWS Cleveland, OH

Home | Current Version | Previous Version | Graphics & Text | Print | Product List | Glossary On
Versions: 1 2 3 4 5 6 7 8 9 10 11 12 13 14 15 16 17 18 19 20 21 22
188
FTUS41 KCLE 172340
TAFTOL
TAF
KTOL 172340Z 1800/1824 17008KT P6SM BKN120
     FM180400 19010KT P6SM VCSH OVC050 WS020/19040KT
     FM180600 19010KT 6SM -SHRA BR VCTS OVC020CB WS020/19045KT
      TEMPO 1806/1808 3SM -TSRA BR OVC007CB
     FM180800 19008KT 4SM -SHRA BR VCTS OVC007CB WS020/21045KT
     FM181200 20010KT 5SM -SHRA BR VCTS OVC003CB
      TEMPO 1812/1816 2SM TSRA
     FM181800 24012G22KT 2SM SHRA BR VCTS OVC003CB
     FM182200 31020G35KT 4SM -SHRA BR OVC007=

USA.gov is the U.S. government's official web portal to all federal, state and local government web resources and services.